createdAt,value
2023-05-05T00:02:10.867Z,9.08
2023-05-05T00:05:27.776Z,9.05
2023-05-05T00:08:59.769Z,9.07
2023-05-05T00:12:15.795Z,9.08
2023-05-05T00:15:35.760Z,9.13
2023-05-05T00:19:12.422Z,9.16
2023-05-05T00:22:45.812Z,9.14
2023-05-05T00:26:25.829Z,8.99
2023-05-05T00:29:29.120Z,8.92
2023-05-05T00:31:57.330Z,8.90
2023-05-05T00:34:25.316Z,8.87
2023-05-05T00:37:21.815Z,8.81
2023-05-05T00:40:56.164Z,8.74
2023-05-05T00:44:38.839Z,8.57
2023-05-05T00:48:23.808Z,8.41
2023-05-05T00:52:01.815Z,8.26
2023-05-05T00:55:33.788Z,8.16
2023-05-05T00:59:04.834Z,8.08
2023-05-05T01:02:37.820Z,7.98
2023-05-05T01:06:10.158Z,7.90
2023-05-05T01:09:41.817Z,7.84
2023-05-05T01:13:16.827Z,7.79
2023-05-05T01:16:46.451Z,7.75
2023-05-05T01:20:03.639Z,7.69
2023-05-05T01:23:37.774Z,7.61
2023-05-05T01:27:12.801Z,7.56
2023-05-05T01:30:07.384Z,7.55
2023-05-05T01:33:34.801Z,7.59
2023-05-05T01:36:48.785Z,7.66
2023-05-05T01:40:18.748Z,7.72
2023-05-05T01:43:43.957Z,7.74
2023-05-05T01:47:11.790Z,7.78
2023-05-05T01:50:48.717Z,7.82
2023-05-05T01:54:25.086Z,7.79
2023-05-05T01:57:43.748Z,7.78
2023-05-05T02:01:18.821Z,7.80
2023-05-05T02:04:37.788Z,7.79
2023-05-05T02:07:52.734Z,7.75
2023-05-05T02:11:16.814Z,7.69
2023-05-05T02:14:33.810Z,7.61
2023-05-05T02:17:42.876Z,7.53
2023-05-05T02:21:03.732Z,7.45
2023-05-05T02:24:20.805Z,7.39
2023-05-05T02:27:26.778Z,7.33
2023-05-05T02:30:53.797Z,7.22
2023-05-05T02:34:23.814Z,7.12
2023-05-05T02:38:05.607Z,7.04
2023-05-05T02:41:34.821Z,6.92
2023-05-05T02:45:18.668Z,6.86
2023-05-05T02:48:50.825Z,6.83
2023-05-05T02:52:20.764Z,6.82
2023-05-05T02:56:12.819Z,6.82
2023-05-05T02:59:29.799Z,6.85
2023-05-05T03:02:58.836Z,6.89
2023-05-05T03:06:38.827Z,6.91
2023-05-05T03:10:28.841Z,6.96
2023-05-05T03:14:35.782Z,7.04
2023-05-05T03:18:22.820Z,7.12
2023-05-05T03:22:20.818Z,7.18
2023-05-05T03:25:45.771Z,7.23
2023-05-05T03:29:39.798Z,7.26
2023-05-05T03:33:20.822Z,7.27
2023-05-05T03:37:12.827Z,7.23
2023-05-05T03:41:03.781Z,7.18
2023-05-05T03:44:50.782Z,7.14
2023-05-05T03:48:09.919Z,7.09
2023-05-05T03:50:39.357Z,7.07
2023-05-05T03:53:08.524Z,7.01
2023-05-05T03:55:36.940Z,6.96
2023-05-05T03:58:05.130Z,6.92
2023-05-05T04:00:33.572Z,6.90
2023-05-05T04:03:01.950Z,6.89
2023-05-05T04:05:31.034Z,6.89
2023-05-05T04:07:59.151Z,6.90
2023-05-05T04:10:27.196Z,6.93
2023-05-05T04:12:55.821Z,6.97
2023-05-05T04:15:23.792Z,7.01
2023-05-05T04:17:52.343Z,7.01
2023-05-05T04:20:20.577Z,6.99
2023-05-05T04:22:49.851Z,7.06
2023-05-05T04:25:19.982Z,7.15
2023-05-05T04:27:49.629Z,7.24
2023-05-05T04:30:18.702Z,7.35
2023-05-05T04:32:47.041Z,7.49
2023-05-05T04:35:15.780Z,7.61
2023-05-05T04:37:44.133Z,7.72
2023-05-05T04:40:12.557Z,7.81
2023-05-05T04:42:41.499Z,7.92
2023-05-05T04:45:10.121Z,8.05
2023-05-05T04:47:39.850Z,8.16
2023-05-05T04:50:08.997Z,8.25
2023-05-05T04:52:39.767Z,8.34
2023-05-05T04:55:10.592Z,8.43
2023-05-05T04:58:34.815Z,8.49
2023-05-05T05:02:26.070Z,8.62
2023-05-05T05:06:04.817Z,8.80
2023-05-05T05:10:14.745Z,8.91
2023-05-05T05:12:47.972Z,9.05
2023-05-05T05:15:15.974Z,9.10
2023-05-05T05:17:44.088Z,9.22
2023-05-05T05:20:14.525Z,9.30
2023-05-05T05:22:42.663Z,9.39
2023-05-05T05:25:14.288Z,9.48
2023-05-05T05:27:42.578Z,9.58
2023-05-05T05:30:14.251Z,9.68
2023-05-05T05:32:42.567Z,9.73
2023-05-05T05:35:10.981Z,9.76
2023-05-05T05:37:39.271Z,9.84
2023-05-05T05:40:11.028Z,9.93
2023-05-05T05:42:40.429Z,9.96
2023-05-05T05:45:29.900Z,10.02
2023-05-05T05:48:01.244Z,10.06
2023-05-05T05:50:50.349Z,10.08
2023-05-05T05:53:19.205Z,9.96
2023-05-05T05:55:47.848Z,9.97
2023-05-05T05:58:17.128Z,10.03
2023-05-05T06:00:49.354Z,10.13
2023-05-05T06:03:17.871Z,10.22
2023-05-05T06:06:24.713Z,10.31
2023-05-05T06:09:28.235Z,10.45
2023-05-05T06:13:36.247Z,10.54
2023-05-05T06:15:16.808Z,10.62
2023-05-05T06:18:57.948Z,10.70
2023-05-05T06:22:38.258Z,10.80
2023-05-05T06:30:06.459Z,11.07
2023-05-05T06:38:13.194Z,11.18
2023-05-05T06:40:25.938Z,11.11
2023-05-05T06:41:24.036Z,11.21
2023-05-05T06:44:38.881Z,11.31
2023-05-05T07:01:12.844Z,11.61
2023-05-05T07:11:22.427Z,11.93
2023-05-05T07:13:06.430Z,11.88
2023-05-05T07:13:57.513Z,12.06
2023-05-05T07:17:08.358Z,12.29
2023-05-05T07:20:18.929Z,12.52
2023-05-05T07:26:50.744Z,13.00
2023-05-05T07:31:48.572Z,13.17
2023-05-05T07:42:32.028Z,13.53
2023-05-05T07:49:22.167Z,13.78
2023-05-05T07:52:18.371Z,13.86
2023-05-05T07:55:28.723Z,13.93
2023-05-05T07:58:57.588Z,13.82
2023-05-05T08:06:40.400Z,13.94
2023-05-05T08:10:43.656Z,14.19
2023-05-05T08:24:54.564Z,15.39
2023-05-05T08:48:06.861Z,16.15
2023-05-05T08:50:41.979Z,16.24
2023-05-05T08:53:12.176Z,16.23
2023-05-05T08:55:56.102Z,16.37
2023-05-05T08:58:27.034Z,16.54
2023-05-05T09:01:01.609Z,16.64
2023-05-05T09:03:34.907Z,16.54
2023-05-05T09:06:05.296Z,16.44
2023-05-05T09:08:35.342Z,16.61
2023-05-05T09:11:08.102Z,16.85
2023-05-05T09:13:36.443Z,17.09
2023-05-05T09:16:05.447Z,17.06
2023-05-05T09:18:36.696Z,17.03
2023-05-05T09:21:20.659Z,17.12
2023-05-05T09:24:09.258Z,17.41
2023-05-05T09:26:47.222Z,17.54
2023-05-05T09:29:26.282Z,17.54
2023-05-05T09:32:10.493Z,17.60
2023-05-05T09:34:43.787Z,17.47
2023-05-05T09:37:31.691Z,17.51
2023-05-05T09:40:09.352Z,17.90
2023-05-05T09:42:41.339Z,18.28
2023-05-05T09:45:40.753Z,18.57
2023-05-05T09:48:40.559Z,18.57
2023-05-05T09:51:33.617Z,18.93
2023-05-05T09:54:22.500Z,19.22
2023-05-05T09:57:43.058Z,19.35
2023-05-05T10:00:44.330Z,19.17
2023-05-05T10:03:19.486Z,19.18
2023-05-05T10:06:44.746Z,19.45
2023-05-05T10:09:26.240Z,19.16
2023-05-05T10:15:47.308Z,19.72
2023-05-05T10:18:25.126Z,20.13
2023-05-05T10:21:06.312Z,20.16
2023-05-05T10:23:49.094Z,19.94
2023-05-05T10:26:20.285Z,20.04
2023-05-05T10:28:56.329Z,20.08
2023-05-05T10:31:41.348Z,19.82
2023-05-05T10:34:27.134Z,20.01
2023-05-05T10:36:57.654Z,20.18
2023-05-05T10:39:43.896Z,19.72
2023-05-05T10:42:15.163Z,19.61
2023-05-05T10:44:44.614Z,19.65
2023-05-05T10:47:13.420Z,19.87
2023-05-05T10:49:53.442Z,19.78
2023-05-05T10:52:41.472Z,19.53
2023-05-05T10:55:22.187Z,19.68
2023-05-05T10:59:00.259Z,19.78
2023-05-05T11:02:42.837Z,20.04
2023-05-05T11:05:29.782Z,20.52
2023-05-05T11:08:28.730Z,20.88
2023-05-05T11:11:00.456Z,21.36
2023-05-05T11:13:29.429Z,21.55
2023-05-05T11:15:58.886Z,21.88
2023-05-05T11:18:35.945Z,22.22
2023-05-05T11:21:15.281Z,22.58
2023-05-05T11:23:48.194Z,22.74
2023-05-05T11:26:18.698Z,23.32
2023-05-05T11:29:03.172Z,23.34
2023-05-05T11:31:34.763Z,23.63
2023-05-05T11:34:31.338Z,24.04
2023-05-05T11:37:04.952Z,24.28
2023-05-05T11:39:47.310Z,24.06
2023-05-05T11:42:26.153Z,24.24
2023-05-05T11:45:19.911Z,23.73
2023-05-05T11:47:48.680Z,23.97
2023-05-05T11:50:24.653Z,24.57
2023-05-05T11:52:55.017Z,25.37
2023-05-05T11:55:25.729Z,25.92
2023-05-05T11:57:54.313Z,26.34
2023-05-05T12:00:58.666Z,26.67
2023-05-05T12:40:58.364Z,26.61
2023-05-05T12:44:00.178Z,27.26
2023-05-05T12:46:48.079Z,27.35
2023-05-05T12:49:54.347Z,27.36
2023-05-05T12:53:12.339Z,27.25
2023-05-05T12:56:44.667Z,27.77
2023-05-05T13:04:59.844Z,27.84
2023-05-05T13:08:19.729Z,27.53
2023-05-05T13:11:01.084Z,26.55
2023-05-05T13:13:44.389Z,26.57
2023-05-05T13:16:19.061Z,26.84
2023-05-05T13:19:09.308Z,26.56
2023-05-05T13:21:44.467Z,26.67
2023-05-05T13:24:49.543Z,26.71
2023-05-05T13:27:29.393Z,26.55
2023-05-05T13:29:59.584Z,27.26
2023-05-05T13:32:27.882Z,28.32
2023-05-05T13:34:59.173Z,29.15
2023-05-05T13:37:31.222Z,29.73
2023-05-05T13:40:01.717Z,29.89
2023-05-05T13:42:30.561Z,28.88
2023-05-05T13:44:58.766Z,29.18
2023-05-05T13:47:34.858Z,29.91
2023-05-05T13:50:05.408Z,30.26
2023-05-05T13:52:42.064Z,30.91
2023-05-05T13:55:17.529Z,31.13
2023-05-05T13:57:52.910Z,30.65
2023-05-05T14:00:39.754Z,30.00
2023-05-05T14:03:10.642Z,29.66
2023-05-05T14:05:44.100Z,30.11
2023-05-05T14:08:13.346Z,30.79
2023-05-05T14:10:41.818Z,31.28
2023-05-05T14:13:12.644Z,31.73
2023-05-05T14:15:54.569Z,32.07
2023-05-05T14:18:22.920Z,30.81
2023-05-05T14:20:58.556Z,28.86
2023-05-05T14:23:28.353Z,28.18
2023-05-05T14:25:57.851Z,28.56
2023-05-05T14:28:29.595Z,29.79
2023-05-05T14:31:06.537Z,30.37
2023-05-05T14:37:18.072Z,30.61
2023-05-05T14:41:02.003Z,30.34
2023-05-05T14:44:51.459Z,30.38
2023-05-05T14:59:09.998Z,32.02
2023-05-05T15:03:09.032Z,32.14
2023-05-05T15:13:11.130Z,31.63
2023-05-05T15:17:05.719Z,32.54
2023-05-05T15:23:20.823Z,33.70
2023-05-05T15:26:28.356Z,33.75
2023-05-05T15:29:18.727Z,33.94
2023-05-05T15:31:57.837Z,34.12
2023-05-05T15:34:38.724Z,34.09
2023-05-05T15:37:23.615Z,34.23
2023-05-05T15:40:08.183Z,34.59
2023-05-05T15:42:51.281Z,34.51
2023-05-05T15:46:25.926Z,34.45
2023-05-05T15:49:17.275Z,34.82
2023-05-05T15:52:10.495Z,34.99
2023-05-05T15:54:55.375Z,34.64
2023-05-05T15:58:19.062Z,32.92
2023-05-05T16:01:23.210Z,32.88
2023-05-05T16:04:35.101Z,32.58
2023-05-05T16:07:37.521Z,33.23
2023-05-05T16:10:50.420Z,33.61
2023-05-05T16:14:27.712Z,33.42
2023-05-05T16:17:05.862Z,32.85
2023-05-05T16:19:37.249Z,32.74
2023-05-05T16:22:05.621Z,32.71
2023-05-05T16:24:33.506Z,32.76
2023-05-05T16:27:02.550Z,32.42
2023-05-05T16:29:30.528Z,32.27
2023-05-05T16:31:58.507Z,32.17
2023-05-05T16:34:26.665Z,32.24
2023-05-05T16:36:54.802Z,32.38
2023-05-05T16:39:22.996Z,31.81
2023-05-05T16:41:50.875Z,31.40
2023-05-05T16:44:18.833Z,30.94
2023-05-05T16:46:46.927Z,30.97
2023-05-05T16:49:25.213Z,31.09
2023-05-05T16:51:53.715Z,30.74
2023-05-05T16:54:22.384Z,30.58
2023-05-05T16:56:52.458Z,30.51
2023-05-05T16:59:20.458Z,30.21
2023-05-05T17:01:48.732Z,29.48
2023-05-05T17:04:17.120Z,28.59
2023-05-05T17:06:45.039Z,27.66
2023-05-05T17:09:12.842Z,26.69
2023-05-05T17:11:42.408Z,26.09
2023-05-05T17:14:10.456Z,25.46
2023-05-05T17:16:38.897Z,24.73
2023-05-05T17:19:14.455Z,24.07
2023-05-05T17:21:46.774Z,23.62
2023-05-05T17:24:15.217Z,23.25
2023-05-05T17:26:44.106Z,22.88
2023-05-05T17:29:13.173Z,22.52
2023-05-05T17:31:42.058Z,22.08
2023-05-05T17:34:13.576Z,21.59
2023-05-05T17:36:42.480Z,20.99
2023-05-05T17:39:11.443Z,20.52
2023-05-05T17:41:42.170Z,20.17
2023-05-05T17:44:11.316Z,19.79
2023-05-05T17:46:39.338Z,19.46
2023-05-05T17:49:10.282Z,19.16
2023-05-05T17:51:58.789Z,18.91
2023-05-05T17:54:37.098Z,18.67
2023-05-05T17:57:05.108Z,18.43
2023-05-05T17:59:53.678Z,18.21
2023-05-05T18:02:24.086Z,17.92
2023-05-05T18:04:52.833Z,17.66
2023-05-05T18:07:21.845Z,17.46
2023-05-05T18:09:49.801Z,17.24
2023-05-05T18:12:19.457Z,17.03
2023-05-05T18:14:54.917Z,16.86
2023-05-05T18:17:24.304Z,16.71
2023-05-05T18:19:54.068Z,16.56
2023-05-05T18:22:30.568Z,16.44
2023-05-05T18:25:00.463Z,16.29
2023-05-05T18:27:29.077Z,16.13
2023-05-05T18:29:56.949Z,16.02
2023-05-05T18:32:24.990Z,15.91
2023-05-05T18:34:52.978Z,15.81
2023-05-05T18:37:20.954Z,15.72
2023-05-05T18:39:49.182Z,15.67
2023-05-05T18:42:17.049Z,15.64
2023-05-05T18:44:45.049Z,15.64
2023-05-05T18:47:13.260Z,15.63
2023-05-05T18:49:41.909Z,15.59
2023-05-05T18:52:09.980Z,15.48
2023-05-05T18:54:38.117Z,15.39
2023-05-05T18:57:06.753Z,15.28
2023-05-05T18:59:34.735Z,15.15
2023-05-05T19:02:02.870Z,15.03
2023-05-05T19:04:32.168Z,14.93
2023-05-05T19:07:00.233Z,14.87
2023-05-05T19:09:28.330Z,14.83
2023-05-05T19:11:56.269Z,14.78
2023-05-05T19:14:28.193Z,14.72
2023-05-05T19:16:58.899Z,14.65
2023-05-05T19:19:27.239Z,14.55
2023-05-05T19:21:55.192Z,14.45
2023-05-05T19:24:23.039Z,14.37
2023-05-05T19:26:52.218Z,14.28
2023-05-05T19:29:20.329Z,14.21
2023-05-05T19:31:48.596Z,14.12
2023-05-05T19:34:17.521Z,14.06
2023-05-05T19:36:45.551Z,13.99
2023-05-05T19:39:15.315Z,13.92
2023-05-05T19:41:44.165Z,13.86
2023-05-05T19:44:12.054Z,13.80
2023-05-05T19:46:40.352Z,13.76
2023-05-05T19:49:08.360Z,13.72
2023-05-05T19:51:36.701Z,13.67
2023-05-05T19:54:06.061Z,13.62
2023-05-05T19:56:34.171Z,13.56
2023-05-05T19:59:05.969Z,13.51
2023-05-05T20:01:35.665Z,13.45
2023-05-05T20:04:03.937Z,13.39
2023-05-05T20:06:32.844Z,13.36
2023-05-05T20:09:01.038Z,13.29
2023-05-05T20:11:30.068Z,13.26
2023-05-05T20:14:31.144Z,13.21
2023-05-05T20:21:23.205Z,13.10
2023-05-05T20:25:14.901Z,13.01
2023-05-05T20:28:48.349Z,12.93
2023-05-05T20:32:24.107Z,12.84
2023-05-05T20:35:54.401Z,12.75
2023-05-05T20:43:05.041Z,12.47
2023-05-05T20:46:49.158Z,12.37
2023-05-05T21:00:17.868Z,11.95
2023-05-05T21:07:32.203Z,11.73
2023-05-05T21:14:43.452Z,11.58
2023-05-05T21:18:19.977Z,11.52
2023-05-05T21:22:10.302Z,11.41
2023-05-05T21:25:44.384Z,11.32
2023-05-05T21:29:48.371Z,11.23
2023-05-05T21:37:25.944Z,11.09
2023-05-05T21:41:26.793Z,10.98
2023-05-05T21:48:22.801Z,10.83
2023-05-05T21:51:45.991Z,10.76
2023-05-05T21:58:42.364Z,10.63
2023-05-05T22:02:10.965Z,10.57
2023-05-05T22:05:55.454Z,10.53
2023-05-05T22:13:34.283Z,10.40
2023-05-05T22:20:28.240Z,10.28
2023-05-05T22:24:12.008Z,10.24
2023-05-05T22:27:56.120Z,10.19
2023-05-05T22:35:17.587Z,10.06
2023-05-05T22:39:22.513Z,10.00
2023-05-05T22:46:22.152Z,9.93
2023-05-05T22:53:16.533Z,9.99
2023-05-05T22:57:00.028Z,10.02
2023-05-05T23:00:37.117Z,10.04
2023-05-05T23:04:11.015Z,10.02
2023-05-05T23:10:55.070Z,9.93
2023-05-05T23:14:42.115Z,9.87
2023-05-05T23:18:14.100Z,9.80
2023-05-05T23:21:53.401Z,9.72
2023-05-05T23:25:25.951Z,9.65
2023-05-05T23:29:26.635Z,9.56
2023-05-05T23:33:35.795Z,9.48
2023-05-05T23:37:13.355Z,9.45
2023-05-05T23:48:02.155Z,9.48
2023-05-05T23:51:37.004Z,9.52
2023-05-05T23:55:16.960Z,9.56
